createdAt,value
2022-09-23T00:01:32.912Z,16.02
2022-09-23T00:03:38.418Z,19.10
2022-09-23T00:05:41.953Z,16.90
2022-09-23T00:07:46.020Z,17.23
2022-09-23T00:09:49.217Z,17.13
2022-09-23T00:11:52.475Z,21.20
2022-09-23T00:14:00.998Z,18.00
2022-09-23T00:16:11.235Z,17.23
2022-09-23T00:18:20.345Z,19.60
2022-09-23T00:20:29.945Z,16.75
2022-09-23T00:22:41.903Z,18.63
2022-09-23T00:24:45.572Z,16.50
2022-09-23T00:26:55.106Z,21.33
2022-09-23T00:28:58.743Z,19.15
2022-09-23T00:31:14.842Z,19.80
2022-09-23T00:33:21.553Z,17.17
2022-09-23T00:35:24.679Z,15.60
2022-09-23T00:37:32.221Z,16.27
2022-09-23T00:39:35.740Z,15.15
2022-09-23T00:41:38.860Z,16.55
2022-09-23T00:43:57.883Z,17.40
2022-09-23T00:46:02.124Z,17.83
2022-09-23T00:48:07.179Z,17.42
2022-09-23T00:50:40.595Z,16.45
2022-09-23T00:52:48.534Z,17.15
2022-09-23T00:54:54.970Z,15.32
2022-09-23T00:56:59.527Z,14.35
2022-09-23T00:59:07.157Z,16.10
2022-09-23T01:01:14.827Z,20.45
2022-09-23T01:03:18.066Z,17.77
2022-09-23T01:05:22.722Z,17.20
2022-09-23T01:07:26.092Z,17.88
2022-09-23T01:09:32.373Z,16.83
2022-09-23T01:11:47.273Z,17.40
2022-09-23T01:14:32.753Z,16.48
2022-09-23T01:16:57.849Z,17.88
2022-09-23T01:19:37.118Z,18.02
2022-09-23T01:21:48.608Z,15.02
2022-09-23T01:24:06.628Z,15.57
2022-09-23T01:26:46.445Z,18.52
2022-09-23T01:29:28.903Z,18.08
2022-09-23T01:31:44.438Z,16.27
2022-09-23T01:34:05.517Z,17.15
2022-09-23T01:36:35.141Z,16.98
2022-09-23T01:39:06.518Z,14.18
2022-09-23T01:41:30.984Z,15.40
2022-09-23T01:43:53.552Z,16.33
2022-09-23T01:46:00.578Z,13.65
2022-09-23T01:48:20.999Z,12.23
2022-09-23T01:50:44.324Z,15.48
2022-09-23T01:52:49.110Z,13.77
2022-09-23T01:55:23.205Z,13.75
2022-09-23T01:58:11.192Z,14.25
2022-09-23T02:03:04.087Z,14.35
2022-09-23T02:05:32.721Z,14.05
2022-09-23T02:08:23.888Z,17.55
2022-09-23T02:10:37.493Z,17.52
2022-09-23T02:12:51.298Z,18.02
2022-09-23T02:15:09.425Z,17.88
2022-09-23T02:17:19.582Z,15.32
2022-09-23T02:19:34.218Z,19.45
2022-09-23T02:21:44.435Z,17.25
2022-09-23T02:23:58.673Z,19.70
2022-09-23T02:26:33.130Z,15.45
2022-09-23T02:29:18.231Z,12.88
2022-09-23T02:31:56.301Z,14.02
2022-09-23T02:34:50.237Z,13.07
2022-09-23T02:37:24.090Z,12.93
2022-09-23T02:39:51.655Z,14.27
2022-09-23T02:42:14.268Z,15.52
2022-09-23T02:44:24.431Z,12.55
2022-09-23T02:46:29.517Z,12.40
2022-09-23T02:48:53.904Z,12.75
2022-09-23T02:50:58.531Z,13.13
2022-09-23T02:53:04.645Z,10.70
2022-09-23T02:55:10.989Z,13.20
2022-09-23T02:57:16.708Z,12.18
2022-09-23T02:59:34.293Z,12.07
2022-09-23T03:02:19.158Z,11.77
2022-09-23T03:05:10.581Z,13.45
2022-09-23T03:08:12.935Z,11.25
2022-09-23T03:10:45.793Z,11.98
2022-09-23T03:13:26.111Z,13.40
2022-09-23T03:16:08.975Z,12.93
2022-09-23T03:18:26.370Z,11.50
2022-09-23T03:21:02.359Z,10.65
2022-09-23T03:23:12.574Z,10.85
2022-09-23T03:25:25.274Z,11.10
2022-09-23T03:27:32.165Z,12.38
2022-09-23T03:29:36.910Z,11.07
2022-09-23T03:31:45.092Z,10.70
2022-09-23T03:33:59.052Z,12.23
2022-09-23T03:36:10.610Z,12.05
2022-09-23T03:38:23.837Z,9.90
2022-09-23T03:40:44.256Z,10.68
2022-09-23T03:42:52.864Z,12.50
2022-09-23T03:44:58.569Z,10.32
2022-09-23T03:47:06.788Z,13.02
2022-09-23T03:49:34.515Z,10.85
2022-09-23T03:51:44.501Z,11.10
2022-09-23T03:53:48.601Z,9.23
2022-09-23T03:55:52.479Z,12.13
2022-09-23T03:58:03.469Z,11.23
2022-09-23T04:00:08.692Z,10.65
2022-09-23T04:02:15.835Z,10.15
2022-09-23T04:04:23.443Z,11.32
2022-09-23T04:06:31.696Z,9.55
2022-09-23T04:08:37.825Z,11.40
2022-09-23T04:10:43.505Z,15.82
2022-09-23T04:13:01.895Z,13.10
2022-09-23T04:15:13.716Z,18.33
2022-09-23T04:17:20.643Z,21.60
2022-09-23T04:19:24.261Z,16.98
2022-09-23T04:21:27.933Z,17.00
2022-09-23T04:23:34.361Z,16.80
2022-09-23T04:25:37.339Z,14.02
2022-09-23T04:27:39.904Z,11.40
2022-09-23T04:29:42.900Z,11.52
2022-09-23T04:31:45.580Z,11.65
2022-09-23T04:33:48.058Z,11.60
2022-09-23T04:35:56.354Z,13.63
2022-09-23T04:37:58.463Z,11.73
2022-09-23T04:42:03.396Z,10.27
2022-09-23T04:44:05.713Z,13.45
2022-09-23T04:46:11.603Z,11.70
2022-09-23T04:48:14.108Z,13.88
2022-09-23T04:52:18.766Z,15.45
2022-09-23T04:54:21.455Z,18.15
2022-09-23T04:58:29.963Z,21.60
2022-09-23T05:00:32.418Z,18.60
2022-09-23T05:04:36.713Z,18.45
2022-09-23T05:06:39.594Z,14.15
2022-09-23T05:09:01.670Z,33.83
2022-09-23T05:50:04.411Z,14.45
2022-09-23T06:11:23.836Z,18.85
2022-09-23T06:13:33.647Z,19.08
2022-09-23T06:15:42.851Z,17.13
2022-09-23T06:17:57.477Z,18.92
2022-09-23T06:20:01.808Z,19.52
2022-09-23T06:22:10.624Z,19.33
2022-09-23T06:24:30.988Z,19.88
2022-09-23T06:37:20.661Z,12.68
2022-09-23T06:39:50.646Z,16.27
2022-09-23T06:41:53.436Z,13.10
2022-09-23T06:43:56.567Z,12.18
2022-09-23T06:46:02.595Z,11.63
2022-09-23T06:48:05.759Z,12.93
2022-09-23T06:50:10.009Z,12.52
2022-09-23T06:52:13.465Z,12.25
2022-09-23T06:54:16.023Z,12.07
2022-09-23T06:56:18.639Z,12.95
2022-09-23T06:58:21.559Z,11.98
2022-09-23T07:00:25.084Z,13.07
2022-09-23T07:02:27.799Z,10.20
2022-09-23T07:04:30.928Z,11.82
2022-09-23T07:06:33.183Z,10.90
2022-09-23T07:08:36.134Z,11.02
2022-09-23T07:10:38.945Z,11.10
2022-09-23T07:12:41.544Z,10.75
2022-09-23T07:14:43.696Z,13.07
2022-09-23T07:16:49.574Z,11.63
2022-09-23T07:18:51.827Z,11.68
2022-09-23T07:20:54.693Z,12.63
2022-09-23T07:22:57.173Z,10.18
2022-09-23T07:24:59.471Z,11.85
2022-09-23T07:27:02.466Z,10.95
2022-09-23T07:29:05.414Z,13.13
2022-09-23T07:31:12.481Z,11.75
2022-09-23T07:33:27.919Z,11.05
2022-09-23T07:35:34.364Z,11.57
2022-09-23T07:37:36.660Z,10.23
2022-09-23T07:39:38.991Z,10.77
2022-09-23T07:41:42.245Z,9.60
2022-09-23T07:43:45.804Z,9.82
2022-09-23T07:45:47.940Z,10.25
2022-09-23T07:47:50.984Z,9.55
2022-09-23T07:49:53.427Z,12.02
2022-09-23T07:51:55.792Z,9.45
2022-09-23T07:53:58.474Z,10.13
2022-09-23T07:56:00.690Z,9.77
2022-09-23T07:58:03.159Z,12.10
2022-09-23T08:00:06.609Z,10.77
2022-09-23T08:02:14.071Z,10.18
2022-09-23T08:04:29.834Z,8.98
2022-09-23T08:06:33.176Z,11.10
2022-09-23T08:08:36.615Z,11.25
2022-09-23T08:10:39.018Z,11.25
2022-09-23T08:12:42.089Z,10.90
2022-09-23T08:14:45.222Z,11.50
2022-09-23T08:16:47.703Z,9.82
2022-09-23T08:18:50.715Z,9.98
2022-09-23T08:20:53.937Z,10.85
2022-09-23T08:22:56.818Z,10.63
2022-09-23T08:25:02.649Z,10.70
2022-09-23T08:27:07.510Z,11.25
2022-09-23T08:29:17.106Z,11.18
2022-09-23T08:31:24.085Z,10.52
2022-09-23T08:33:28.352Z,10.18
2022-09-23T08:35:31.087Z,8.63
2022-09-23T08:37:52.245Z,10.57
2022-09-23T08:40:10.127Z,9.10
2022-09-23T08:42:53.000Z,7.72
2022-09-23T08:45:06.895Z,8.27
2022-09-23T08:47:29.833Z,6.50
2022-09-23T08:49:55.529Z,8.18
2022-09-23T08:52:37.380Z,6.47
2022-09-23T08:54:54.580Z,6.63
2022-09-23T08:57:03.109Z,7.05
2022-09-23T08:59:25.586Z,7.68
2022-09-23T09:01:49.125Z,6.70
2022-09-23T09:03:59.327Z,7.13
2022-09-23T09:06:20.087Z,6.72
2022-09-23T09:08:32.528Z,8.03
2022-09-23T09:10:51.132Z,7.70
2022-09-23T09:13:09.574Z,7.13
2022-09-23T09:15:24.337Z,4.53
2022-09-23T09:17:39.957Z,5.43
2022-09-23T09:19:58.013Z,5.25
2022-09-23T09:22:05.216Z,6.15
2022-09-23T09:24:22.961Z,5.38
2022-09-23T09:26:33.846Z,6.57
2022-09-23T09:28:51.787Z,6.65
2022-09-23T09:31:01.745Z,6.15
2022-09-23T09:36:18.378Z,3.92
2022-09-23T09:38:33.270Z,3.75
2022-09-23T09:40:48.493Z,5.75
2022-09-23T09:42:54.567Z,4.53
2022-09-23T09:45:15.910Z,4.03
2022-09-23T09:48:09.319Z,4.15
2022-09-23T09:50:50.612Z,3.33
2022-09-23T09:53:23.639Z,4.18
2022-09-23T09:55:41.674Z,3.70
2022-09-23T09:58:06.957Z,4.63
2022-09-23T10:00:29.169Z,6.07
2022-09-23T10:02:40.497Z,4.38
2022-09-23T10:04:45.879Z,4.15
2022-09-23T10:07:16.105Z,5.60
2022-09-23T10:09:22.113Z,3.92
2022-09-23T10:11:28.871Z,4.32
2022-09-23T10:13:32.392Z,4.28
2022-09-23T10:15:46.322Z,6.32
2022-09-23T10:17:52.091Z,5.53
2022-09-23T10:20:07.509Z,5.93
2022-09-23T10:22:27.071Z,4.70
2022-09-23T10:24:32.878Z,5.20
2022-09-23T10:27:00.472Z,5.40
2022-09-23T10:29:54.395Z,5.75
2022-09-23T10:32:42.367Z,4.05
2022-09-23T10:35:03.484Z,5.30
2022-09-23T10:37:20.962Z,5.20
2022-09-23T10:39:49.098Z,4.32
2022-09-23T10:42:23.828Z,5.60
2022-09-23T10:45:16.551Z,4.72
2022-09-23T10:47:52.791Z,4.03
2022-09-23T10:50:42.227Z,4.63
2022-09-23T10:53:23.854Z,5.60
2022-09-23T10:56:11.323Z,5.28
2022-09-23T10:58:38.176Z,4.80
2022-09-23T11:01:12.921Z,5.28
2022-09-23T11:04:58.685Z,4.75
2022-09-23T11:28:36.921Z,4.30
2022-09-23T11:31:19.344Z,4.97
2022-09-23T11:34:00.425Z,6.55
2022-09-23T11:36:25.657Z,4.55
2022-09-23T11:38:50.805Z,4.00
2022-09-23T11:43:22.387Z,4.88
2022-09-23T11:45:50.076Z,3.47
2022-09-23T11:48:19.467Z,3.20
2022-09-23T11:50:46.255Z,4.25
2022-09-23T11:53:14.578Z,4.15
2022-09-23T11:55:37.038Z,6.88
2022-09-23T11:58:25.596Z,3.35
2022-09-23T12:00:42.693Z,4.03
2022-09-23T12:03:42.794Z,3.55
2022-09-23T12:06:10.772Z,3.30
2022-09-23T12:08:33.477Z,3.17
2022-09-23T12:17:26.184Z,2.97
2022-09-23T12:20:18.963Z,2.28
2022-09-23T12:23:21.134Z,2.80
2022-09-23T12:25:46.314Z,2.80
2022-09-23T12:28:15.752Z,4.93
2022-09-23T12:30:40.449Z,4.45
2022-09-23T12:33:23.341Z,4.60
2022-09-23T12:35:52.472Z,2.78
2022-09-23T12:38:07.535Z,3.08
2022-09-23T12:40:49.148Z,1.92
2022-09-23T12:42:58.006Z,1.98
2022-09-23T12:45:37.984Z,2.75
2022-09-23T12:47:45.996Z,3.28
2022-09-23T12:50:17.107Z,3.85
2022-09-23T12:52:33.707Z,2.55
2022-09-23T13:01:46.240Z,3.83
2022-09-23T13:04:15.537Z,2.05
2022-09-23T13:07:00.595Z,2.47
2022-09-23T13:10:00.154Z,2.95
2022-09-23T13:59:31.745Z,2.25
2022-09-23T14:01:35.542Z,4.55
2022-09-23T14:03:40.673Z,1.98
2022-09-23T14:05:51.771Z,3.67
2022-09-23T14:07:58.165Z,2.55
2022-09-23T14:10:01.006Z,2.97
2022-09-23T14:12:07.629Z,4.07
2022-09-23T14:14:29.557Z,2.17
2022-09-23T14:16:41.588Z,2.33
2022-09-23T14:20:10.041Z,1.50
2022-09-23T14:22:11.713Z,1.17
2022-09-23T14:24:42.559Z,1.67
2022-09-23T14:28:01.263Z,3.58
2022-09-23T14:30:53.299Z,0.98
2022-09-23T14:33:06.726Z,1.85
2022-09-23T14:35:24.204Z,1.45
2022-09-23T14:37:38.443Z,3.15
2022-09-23T14:39:41.270Z,2.63
2022-09-23T14:41:45.852Z,3.15
2022-09-23T14:44:00.711Z,0.80
2022-09-23T14:46:03.486Z,1.63
2022-09-23T14:48:17.630Z,2.03
2022-09-23T14:50:24.966Z,5.13
2022-09-23T14:52:28.000Z,1.70
2022-09-23T14:54:40.373Z,2.72
2022-09-23T14:56:44.045Z,2.30
2022-09-23T14:58:54.677Z,3.63
2022-09-23T15:01:02.938Z,3.42
2022-09-23T15:03:15.468Z,5.18
2022-09-23T15:05:24.457Z,4.80
2022-09-23T15:07:27.030Z,5.32
2022-09-23T15:09:41.663Z,4.95
2022-09-23T15:11:44.832Z,2.72
2022-09-23T15:13:52.318Z,2.13
2022-09-23T15:15:56.709Z,1.83
2022-09-23T15:18:20.646Z,6.25
2022-09-23T15:20:27.516Z,4.57
2022-09-23T15:22:30.296Z,5.95
2022-09-23T15:24:41.532Z,7.03
2022-09-23T15:26:52.665Z,7.53
2022-09-23T15:28:56.979Z,5.10
2022-09-23T15:31:00.636Z,5.80
2022-09-23T15:33:03.695Z,6.53
2022-09-23T15:35:06.838Z,4.88
2022-09-23T15:37:11.906Z,3.50
2022-09-23T15:39:15.604Z,4.18
2022-09-23T15:41:19.118Z,6.28
2022-09-23T15:43:25.279Z,7.10
2022-09-23T15:45:44.960Z,7.35
2022-09-23T15:47:49.673Z,7.82
2022-09-23T15:49:52.617Z,7.22
2022-09-23T15:52:00.455Z,5.25
2022-09-23T17:03:04.095Z,9.40
2022-09-23T17:08:54.010Z,6.53
2022-09-23T17:11:00.841Z,9.60
2022-09-23T17:13:03.797Z,8.70
2022-09-23T17:17:25.729Z,15.02
2022-09-23T17:19:28.980Z,15.07
2022-09-23T17:23:54.305Z,14.85
2022-09-23T17:26:05.245Z,11.60
2022-09-23T17:28:10.824Z,14.63
2022-09-23T17:30:13.617Z,34.55
2022-09-23T17:32:16.257Z,22.33
2022-09-23T17:34:19.856Z,21.42
2022-09-23T17:38:40.494Z,21.92
2022-09-23T17:43:12.385Z,21.15
2022-09-23T17:45:15.115Z,19.33
2022-09-23T17:47:18.324Z,18.90
2022-09-23T17:49:20.841Z,18.88
2022-09-23T17:51:24.692Z,17.73
2022-09-23T17:53:31.398Z,17.98
2022-09-23T17:55:33.648Z,15.95
2022-09-23T17:57:41.964Z,17.50
2022-09-23T17:59:45.907Z,14.18
2022-09-23T18:01:48.408Z,15.10
2022-09-23T18:03:58.347Z,15.98
2022-09-23T18:06:14.060Z,14.05
2022-09-23T18:08:16.613Z,17.05
2022-09-23T18:10:19.324Z,32.28
2022-09-23T18:12:22.364Z,30.33
2022-09-23T18:14:24.772Z,36.88
2022-09-23T18:16:37.463Z,74.07
2022-09-23T18:18:41.068Z,37.53
2022-09-23T18:20:43.987Z,25.50
2022-09-23T18:22:48.328Z,32.67
2022-09-23T18:24:53.260Z,43.38
2022-09-23T18:26:55.798Z,26.48
2022-09-23T18:28:59.817Z,25.60
2022-09-23T18:31:03.257Z,25.20
2022-09-23T18:33:05.698Z,25.02
2022-09-23T18:35:08.203Z,31.70
2022-09-23T18:37:15.680Z,26.77
2022-09-23T18:39:18.705Z,29.77
2022-09-23T18:41:21.949Z,30.83
2022-09-23T18:43:37.288Z,28.42
2022-09-23T18:45:41.950Z,30.70
2022-09-23T18:47:44.402Z,22.60
2022-09-23T18:49:47.093Z,21.10
2022-09-23T18:51:53.175Z,23.48
2022-09-23T18:54:00.778Z,22.17
2022-09-23T18:56:19.839Z,28.75
2022-09-23T18:58:22.201Z,28.73
2022-09-23T19:00:24.599Z,39.63
2022-09-23T19:02:29.836Z,32.05
2022-09-23T19:04:32.248Z,47.95
2022-09-23T19:06:39.377Z,41.35
2022-09-23T19:08:45.769Z,38.88
2022-09-23T19:11:06.111Z,24.90
2022-09-23T19:13:15.460Z,21.27
2022-09-23T19:15:47.173Z,25.50
2022-09-23T19:17:49.582Z,21.27
2022-09-23T19:20:20.744Z,16.27
2022-09-23T19:22:46.072Z,14.25
2022-09-23T19:25:13.085Z,16.17
2022-09-23T19:27:29.285Z,19.15
2022-09-23T19:29:31.954Z,40.55
2022-09-23T19:32:09.135Z,35.97
2022-09-23T19:34:26.573Z,29.80
2022-09-23T19:36:40.495Z,23.35
2022-09-23T19:38:47.442Z,18.40
2022-09-23T19:40:51.078Z,18.05
2022-09-23T19:42:53.802Z,19.40
2022-09-23T19:44:57.279Z,19.20
2022-09-23T19:47:00.126Z,17.77
2022-09-23T19:49:03.155Z,17.65
2022-09-23T19:51:08.918Z,17.48
2022-09-23T19:53:53.971Z,16.65
2022-09-23T19:56:19.494Z,17.88
2022-09-23T19:58:22.505Z,21.52
2022-09-23T20:00:24.865Z,21.70
2022-09-23T20:02:28.032Z,19.63
2022-09-23T20:04:34.298Z,20.20
2022-09-23T20:06:38.023Z,19.55
2022-09-23T20:08:42.313Z,21.90
2022-09-23T20:10:45.012Z,22.55
2022-09-23T20:12:47.807Z,18.83
2022-09-23T20:14:50.483Z,19.90
2022-09-23T20:16:52.751Z,20.40
2022-09-23T20:18:55.831Z,21.88
2022-09-23T20:20:58.783Z,18.73
2022-09-23T20:23:01.478Z,17.17
2022-09-23T20:25:05.497Z,19.67
2022-09-23T20:27:08.165Z,18.38
2022-09-23T20:29:10.978Z,18.63
2022-09-23T20:31:15.091Z,20.48
2022-09-23T20:33:20.665Z,18.48
2022-09-23T20:35:28.235Z,22.50
2022-09-23T20:37:30.713Z,18.80
2022-09-23T20:39:33.455Z,20.55
2022-09-23T20:41:37.155Z,18.23
2022-09-23T20:43:39.637Z,21.50
2022-09-23T20:45:50.524Z,20.02
2022-09-23T20:47:53.067Z,23.38
2022-09-23T20:49:55.684Z,20.45
2022-09-23T20:51:58.626Z,23.65
2022-09-23T20:54:01.481Z,19.45
2022-09-23T20:56:04.012Z,18.45
2022-09-23T20:58:08.493Z,19.13
2022-09-23T21:00:13.674Z,19.83
2022-09-23T21:02:16.242Z,20.55
2022-09-23T21:04:18.928Z,20.25
2022-09-23T21:06:21.202Z,20.05
2022-09-23T21:08:23.593Z,19.58
2022-09-23T21:10:26.488Z,19.20
2022-09-23T21:12:28.737Z,19.13
2022-09-23T21:14:31.074Z,19.30
2022-09-23T21:16:34.420Z,19.48
2022-09-23T21:18:39.174Z,21.52
2022-09-23T21:20:42.134Z,19.50
2022-09-23T21:22:45.060Z,19.33
2022-09-23T21:25:26.313Z,19.27
2022-09-23T21:27:09.807Z,16.77
2022-09-23T21:29:12.981Z,18.17
2022-09-23T21:31:22.268Z,17.05
2022-09-23T21:33:24.668Z,18.02
2022-09-23T21:35:27.308Z,16.73
2022-09-23T21:40:39.651Z,20.15
2022-09-23T21:42:41.809Z,19.38
2022-09-23T21:46:47.239Z,15.13
2022-09-23T21:48:52.488Z,18.55
2022-09-23T21:51:06.563Z,21.98
2022-09-23T21:53:09.022Z,19.80
2022-09-23T21:57:13.152Z,21.00
2022-09-23T21:59:15.986Z,24.90
2022-09-23T22:03:23.448Z,23.10
2022-09-23T22:05:26.518Z,21.98
2022-09-23T22:09:31.024Z,16.90
2022-09-23T22:11:33.700Z,18.15
2022-09-23T22:13:36.063Z,17.17
2022-09-23T22:16:04.180Z,20.42
2022-09-23T22:18:06.830Z,21.00
2022-09-23T22:22:15.776Z,18.58
2022-09-23T22:24:19.280Z,23.02
2022-09-23T22:26:21.638Z,17.60
2022-09-23T22:28:23.844Z,15.70
2022-09-23T22:30:26.576Z,21.48
2022-09-23T22:32:28.868Z,20.38
2022-09-23T22:34:48.985Z,17.20
2022-09-23T22:36:51.941Z,16.25
2022-09-23T22:41:01.727Z,15.60
2022-09-23T22:43:04.549Z,15.18
2022-09-23T22:45:07.848Z,16.60
2022-09-23T22:47:10.707Z,14.80
2022-09-23T22:49:14.262Z,18.00
2022-09-23T22:51:16.919Z,15.45
2022-09-23T22:53:19.251Z,15.70
2022-09-23T22:55:22.021Z,15.68
2022-09-23T22:57:24.369Z,16.80
2022-09-23T22:59:26.568Z,17.70
2022-09-23T23:01:30.582Z,19.80
2022-09-23T23:03:32.916Z,15.98
2022-09-23T23:05:35.278Z,15.90
2022-09-23T23:07:37.881Z,19.88
2022-09-23T23:11:43.606Z,25.70
2022-09-23T23:13:46.125Z,19.25
2022-09-23T23:15:49.078Z,18.00
2022-09-23T23:17:52.906Z,21.35
2022-09-23T23:19:55.500Z,17.20
2022-09-23T23:21:57.814Z,18.83
2022-09-23T23:24:00.681Z,17.45
2022-09-23T23:26:31.085Z,15.98
2022-09-23T23:28:33.350Z,18.15
2022-09-23T23:30:35.683Z,14.98
2022-09-23T23:32:38.872Z,21.08
2022-09-23T23:34:41.074Z,18.88
2022-09-23T23:38:49.464Z,17.55
2022-09-23T23:40:51.690Z,17.73
2022-09-23T23:42:53.951Z,18.50
2022-09-23T23:44:56.813Z,17.27
2022-09-23T23:49:01.305Z,18.08
2022-09-23T23:51:06.762Z,16.23
2022-09-23T23:53:09.032Z,13.82
2022-09-23T23:55:11.190Z,17.20
2022-09-23T23:57:13.823Z,16.02
